createdAt,value
2018-05-07T00:03:04.983Z,99.90
2018-05-07T00:06:11.051Z,99.90
2018-05-07T00:09:17.053Z,99.90
2018-05-07T00:12:23.210Z,99.90
2018-05-07T00:15:29.454Z,99.90
2018-05-07T00:18:35.622Z,99.90
2018-05-07T00:21:41.869Z,99.90
2018-05-07T00:24:47.130Z,99.90
2018-05-07T00:27:52.975Z,99.90
2018-05-07T00:30:58.355Z,99.90
2018-05-07T00:34:04.700Z,99.90
2018-05-07T00:37:10.638Z,99.90
2018-05-07T00:40:16.656Z,99.90
2018-05-07T00:43:22.725Z,99.90
2018-05-07T00:46:28.924Z,99.90
2018-05-07T00:49:35.095Z,99.90
2018-05-07T00:52:41.307Z,99.90
2018-05-07T00:55:47.573Z,99.90
2018-05-07T00:58:52.864Z,99.90
2018-05-07T01:01:59.020Z,99.90
2018-05-07T01:05:05.004Z,99.90
2018-05-07T01:08:10.293Z,99.90
2018-05-07T01:11:16.348Z,99.90
2018-05-07T01:14:22.271Z,99.90
2018-05-07T01:17:28.208Z,99.90
2018-05-07T01:20:34.269Z,99.90
2018-05-07T01:23:40.321Z,99.90
2018-05-07T01:26:46.296Z,99.90
2018-05-07T01:29:52.088Z,99.90
2018-05-07T01:32:57.336Z,99.90
2018-05-07T01:36:03.426Z,99.90
2018-05-07T01:39:09.614Z,99.90
2018-05-07T01:42:15.896Z,99.90
2018-05-07T01:45:22.046Z,99.90
2018-05-07T01:48:28.147Z,99.90
2018-05-07T01:51:34.429Z,99.90
2018-05-07T01:54:40.783Z,99.90
2018-05-07T01:57:46.033Z,99.90
2018-05-07T02:00:52.349Z,99.90
2018-05-07T02:03:57.806Z,99.90
2018-05-07T02:07:03.661Z,99.90
2018-05-07T02:10:09.788Z,99.90
2018-05-07T02:13:15.825Z,99.90
2018-05-07T02:16:22.006Z,99.90
2018-05-07T02:19:28.073Z,99.90
2018-05-07T02:22:34.365Z,99.90
2018-05-07T02:25:40.462Z,99.90
2018-05-07T02:28:46.521Z,99.90
2018-05-07T02:31:52.684Z,99.90
2018-05-07T02:34:58.873Z,99.90
2018-05-07T02:38:04.955Z,99.90
2018-05-07T02:41:10.211Z,99.90
2018-05-07T02:44:16.177Z,99.90
2018-05-07T02:47:22.234Z,99.90
2018-05-07T02:50:29.002Z,99.90
2018-05-07T02:53:36.546Z,99.90
2018-05-07T02:56:41.881Z,99.90
2018-05-07T02:59:48.062Z,99.90
2018-05-07T03:02:54.239Z,99.90
2018-05-07T03:06:00.056Z,99.90
2018-05-07T03:09:06.154Z,99.90
2018-05-07T03:12:12.465Z,99.90
2018-05-07T03:15:18.628Z,99.90
2018-05-07T03:18:24.969Z,99.90
2018-05-07T03:21:31.052Z,99.90
2018-05-07T03:24:37.092Z,99.90
2018-05-07T03:27:43.203Z,99.90
2018-05-07T03:30:49.163Z,99.90
2018-05-07T03:33:54.446Z,99.90
2018-05-07T03:37:00.316Z,99.90
2018-05-07T03:40:06.385Z,99.90
2018-05-07T03:43:12.653Z,99.90
2018-05-07T03:46:18.400Z,99.90
2018-05-07T03:49:24.493Z,99.90
2018-05-07T03:52:30.556Z,99.90
2018-05-07T03:55:36.583Z,99.90
2018-05-07T03:58:42.572Z,99.90
2018-05-07T04:01:48.523Z,99.90
2018-05-07T04:05:02.784Z,99.90
2018-05-07T04:08:09.117Z,99.90
2018-05-07T04:11:15.265Z,99.90
2018-05-07T04:14:21.746Z,99.90
2018-05-07T04:17:39.862Z,99.90
2018-05-07T04:20:57.633Z,99.90
2018-05-07T04:24:15.088Z,99.90
2018-05-07T04:27:21.209Z,99.90
2018-05-07T04:30:27.419Z,99.90
2018-05-07T04:33:33.576Z,99.90
2018-05-07T04:36:39.724Z,99.90
2018-05-07T04:39:45.862Z,99.90
2018-05-07T04:42:51.197Z,99.90
2018-05-07T04:45:57.435Z,99.90
2018-05-07T04:49:03.202Z,99.90
2018-05-07T04:52:09.417Z,99.90
2018-05-07T04:55:15.926Z,99.90
2018-05-07T04:58:22.509Z,99.90
2018-05-07T05:01:28.493Z,99.90
2018-05-07T05:04:34.619Z,99.90
2018-05-07T05:07:40.861Z,99.90
2018-05-07T05:10:46.294Z,99.90
2018-05-07T05:13:52.653Z,99.90
2018-05-07T05:16:59.004Z,99.90
2018-05-07T05:20:05.110Z,99.90
2018-05-07T05:23:11.124Z,99.90
2018-05-07T05:26:26.761Z,99.90
2018-05-07T05:29:33.518Z,99.90
2018-05-07T05:32:39.487Z,99.90
2018-05-07T05:35:45.495Z,99.90
2018-05-07T05:38:51.417Z,99.90
2018-05-07T05:41:57.573Z,99.90
2018-05-07T05:45:03.560Z,99.90
2018-05-07T05:48:09.630Z,99.90
2018-05-07T05:51:14.738Z,99.90
2018-05-07T05:54:20.896Z,99.90
2018-05-07T05:57:26.894Z,99.90
2018-05-07T06:00:32.580Z,99.90
2018-05-07T06:03:38.742Z,99.90
2018-05-07T06:06:44.164Z,99.90
2018-05-07T06:09:50.362Z,99.90
2018-05-07T06:12:56.323Z,99.90
2018-05-07T06:16:02.377Z,99.90
2018-05-07T06:19:08.406Z,99.90
2018-05-07T06:22:13.864Z,99.90
2018-05-07T06:25:19.152Z,99.90
2018-05-07T06:28:25.136Z,99.90
2018-05-07T06:31:31.145Z,99.90
2018-05-07T06:34:37.032Z,99.90
2018-05-07T06:37:43.165Z,99.90
2018-05-07T06:41:08.210Z,99.90
2018-05-07T06:44:14.083Z,99.90
2018-05-07T06:47:19.286Z,99.90
2018-05-07T06:50:25.333Z,99.90
2018-05-07T06:53:31.618Z,99.90
2018-05-07T06:56:37.352Z,99.90
2018-05-07T06:59:43.591Z,99.90
2018-05-07T07:02:49.723Z,99.90
2018-05-07T07:05:55.646Z,99.90
2018-05-07T07:09:01.703Z,99.90
2018-05-07T07:12:07.927Z,99.90
2018-05-07T07:15:13.884Z,99.90
2018-05-07T07:18:19.904Z,99.90
2018-05-07T07:21:25.816Z,99.90
2018-05-07T07:24:32.083Z,99.90
2018-05-07T07:27:38.213Z,99.90
2018-05-07T07:30:43.359Z,99.90
2018-05-07T07:33:48.639Z,99.90
2018-05-07T07:36:54.993Z,99.90
2018-05-07T07:40:01.270Z,99.90
2018-05-07T07:43:07.480Z,99.90
2018-05-07T07:46:13.691Z,99.90
2018-05-07T07:49:18.753Z,99.90
2018-05-07T07:52:25.221Z,99.90
2018-05-07T07:55:31.358Z,99.90
2018-05-07T07:58:37.584Z,99.90
2018-05-07T08:01:43.458Z,99.90
2018-05-07T08:04:49.402Z,99.90
2018-05-07T08:07:55.437Z,99.90
2018-05-07T08:11:01.639Z,99.90
2018-05-07T08:14:07.750Z,99.90
2018-05-07T08:17:13.679Z,99.90
2018-05-07T08:20:19.741Z,99.90
2018-05-07T08:23:24.931Z,99.90
2018-05-07T08:26:31.093Z,99.90
2018-05-07T08:29:37.174Z,99.30
2018-05-07T08:32:43.228Z,99.20
2018-05-07T08:35:49.306Z,97.60
2018-05-07T08:38:55.282Z,97.50
2018-05-07T08:42:01.550Z,95.50
2018-05-07T08:45:07.645Z,93.70
2018-05-07T08:48:12.970Z,94.60
2018-05-07T08:51:18.110Z,93.00
2018-05-07T08:54:24.181Z,93.70
2018-05-07T08:57:30.177Z,93.60
2018-05-07T09:00:36.427Z,92.50
2018-05-07T09:03:42.479Z,92.60
2018-05-07T09:06:47.681Z,91.40
2018-05-07T09:09:53.919Z,92.10
2018-05-07T09:12:59.340Z,92.10
2018-05-07T09:16:05.681Z,91.10
2018-05-07T09:19:11.544Z,91.00
2018-05-07T09:22:17.628Z,86.60
2018-05-07T09:25:23.545Z,86.50
2018-05-07T09:28:29.708Z,84.40
2018-05-07T09:31:36.388Z,84.70
2018-05-07T09:34:42.119Z,85.10
2018-05-07T09:37:47.997Z,81.10
2018-05-07T09:40:53.140Z,80.90
2018-05-07T09:43:59.327Z,81.60
2018-05-07T09:47:05.236Z,80.90
2018-05-07T09:50:10.329Z,77.20
2018-05-07T09:53:16.265Z,79.30
2018-05-07T09:56:21.814Z,76.00
2018-05-07T09:59:28.108Z,75.20
2018-05-07T10:02:34.149Z,73.60
2018-05-07T10:05:41.187Z,74.20
2018-05-07T10:08:47.721Z,73.00
2018-05-07T10:11:53.572Z,71.20
2018-05-07T10:14:59.637Z,69.00
2018-05-07T10:18:05.714Z,70.50
2018-05-07T10:21:11.832Z,70.50
2018-05-07T10:24:17.130Z,66.60
2018-05-07T10:27:23.223Z,70.10
2018-05-07T10:30:29.591Z,67.70
2018-05-07T10:33:35.638Z,67.90
2018-05-07T10:36:41.457Z,67.80
2018-05-07T10:39:47.427Z,66.90
2018-05-07T10:42:53.512Z,66.20
2018-05-07T10:45:59.364Z,66.00
2018-05-07T10:49:05.551Z,64.80
2018-05-07T10:52:11.377Z,64.10
2018-05-07T10:55:17.625Z,64.00
2018-05-07T10:58:23.690Z,64.00
2018-05-07T11:01:29.723Z,63.20
2018-05-07T11:04:35.913Z,62.10
2018-05-07T11:07:41.988Z,62.10
2018-05-07T11:10:47.944Z,62.10
2018-05-07T11:13:53.036Z,62.40
2018-05-07T11:16:59.132Z,61.40
2018-05-07T11:20:04.236Z,61.20
2018-05-07T11:23:10.350Z,62.10
2018-05-07T11:26:16.442Z,62.20
2018-05-07T11:29:21.815Z,62.10
2018-05-07T11:32:27.864Z,59.80
2018-05-07T11:35:33.226Z,58.90
2018-05-07T11:38:39.380Z,59.00
2018-05-07T11:41:45.360Z,59.60
2018-05-07T11:44:51.477Z,61.60
2018-05-07T11:47:57.480Z,57.20
2018-05-07T11:51:03.543Z,58.10
2018-05-07T11:54:10.705Z,59.30
2018-05-07T11:57:16.509Z,59.20
2018-05-07T12:00:22.801Z,57.80
2018-05-07T12:03:29.145Z,58.00
2018-05-07T12:06:35.304Z,57.90
2018-05-07T12:09:41.286Z,56.40
2018-05-07T12:12:46.927Z,56.70
2018-05-07T12:15:53.156Z,56.00
2018-05-07T12:18:59.315Z,54.40
2018-05-07T12:22:05.779Z,55.70
2018-05-07T12:25:11.051Z,55.70
2018-05-07T12:28:17.145Z,55.40
2018-05-07T12:31:23.149Z,55.50
2018-05-07T12:34:28.869Z,53.70
2018-05-07T12:37:34.953Z,53.50
2018-05-07T12:40:41.241Z,54.00
2018-05-07T12:43:46.424Z,54.00
2018-05-07T12:46:52.283Z,54.40
2018-05-07T12:49:58.488Z,54.30
2018-05-07T12:53:04.577Z,54.20
2018-05-07T12:56:10.620Z,52.50
2018-05-07T12:59:16.543Z,51.20
2018-05-07T13:02:21.944Z,52.00
2018-05-07T13:05:27.805Z,53.30
2018-05-07T13:08:34.643Z,52.50
2018-05-07T13:11:40.715Z,52.30
2018-05-07T13:14:47.656Z,52.40
2018-05-07T13:17:53.565Z,52.40
2018-05-07T13:20:59.772Z,51.50
2018-05-07T13:24:05.950Z,51.50
2018-05-07T13:27:11.864Z,51.10
2018-05-07T13:30:17.257Z,50.90
2018-05-07T13:33:22.501Z,51.00
2018-05-07T13:36:27.699Z,49.20
2018-05-07T13:39:33.613Z,49.90
2018-05-07T13:42:40.618Z,49.40
2018-05-07T13:45:46.758Z,49.40
2018-05-07T13:48:52.902Z,50.90
2018-05-07T13:51:58.926Z,51.90
2018-05-07T13:55:05.210Z,52.10
2018-05-07T13:58:11.308Z,51.10
2018-05-07T14:01:17.419Z,51.10
2018-05-07T14:04:23.423Z,51.60
2018-05-07T14:07:29.643Z,50.20
2018-05-07T14:10:36.524Z,51.20
2018-05-07T14:13:42.601Z,51.10
2018-05-07T14:16:48.586Z,50.40
2018-05-07T14:19:54.671Z,50.20
2018-05-07T14:23:00.591Z,50.30
2018-05-07T14:26:06.849Z,50.50
2018-05-07T14:29:12.900Z,50.50
2018-05-07T14:32:18.869Z,49.00
2018-05-07T14:35:24.746Z,49.50
2018-05-07T14:38:31.181Z,48.60
2018-05-07T14:41:37.335Z,47.80
2018-05-07T14:44:43.452Z,47.80
2018-05-07T14:47:49.518Z,49.00
2018-05-07T14:50:55.793Z,48.30
2018-05-07T14:54:01.649Z,48.30
2018-05-07T14:57:07.562Z,48.50
2018-05-07T15:00:12.816Z,47.70
2018-05-07T15:03:18.891Z,47.50
2018-05-07T15:06:25.008Z,48.80
2018-05-07T15:09:31.074Z,51.90
2018-05-07T15:12:37.147Z,53.40
2018-05-07T15:15:43.127Z,53.40
2018-05-07T15:18:50.365Z,53.80
2018-05-07T15:21:56.217Z,53.70
2018-05-07T15:25:08.039Z,53.70
2018-05-07T15:28:14.123Z,53.20
2018-05-07T15:31:20.205Z,51.60
2018-05-07T15:34:27.234Z,51.50
2018-05-07T15:37:33.263Z,51.60
2018-05-07T15:40:39.391Z,51.20
2018-05-07T15:43:46.407Z,51.10
2018-05-07T15:46:52.113Z,51.80
2018-05-07T15:49:58.211Z,50.20
2018-05-07T15:53:03.483Z,50.10
2018-05-07T15:56:08.714Z,50.10
2018-05-07T15:59:14.778Z,49.50
2018-05-07T16:02:19.937Z,49.70
2018-05-07T16:05:26.266Z,49.50
2018-05-07T16:08:32.005Z,49.50
2018-05-07T16:11:38.184Z,50.10
2018-05-07T16:14:44.227Z,49.20
2018-05-07T16:17:50.301Z,50.00
2018-05-07T16:20:56.247Z,49.30
2018-05-07T16:24:02.294Z,50.30
2018-05-07T16:27:08.501Z,51.60
2018-05-07T16:30:14.804Z,52.40
2018-05-07T16:33:20.852Z,54.00
2018-05-07T16:36:27.142Z,54.40
2018-05-07T16:39:33.421Z,54.40
2018-05-07T16:42:39.478Z,54.80
2018-05-07T16:45:44.795Z,55.60
2018-05-07T16:48:50.819Z,56.40
2018-05-07T16:51:57.123Z,57.40
2018-05-07T16:55:03.300Z,57.40
2018-05-07T16:58:09.155Z,57.90
2018-05-07T17:01:15.264Z,57.70
2018-05-07T17:04:20.464Z,58.20
2018-05-07T17:07:26.215Z,58.50
2018-05-07T17:10:32.433Z,58.50
2018-05-07T17:13:38.686Z,59.80
2018-05-07T17:16:45.197Z,60.40
2018-05-07T17:19:51.495Z,60.90
2018-05-07T17:22:57.385Z,61.00
2018-05-07T17:26:03.653Z,60.60
2018-05-07T17:29:09.778Z,61.20
2018-05-07T17:32:15.813Z,61.20
2018-05-07T17:35:22.068Z,62.00
2018-05-07T17:38:28.049Z,62.10
2018-05-07T17:41:34.023Z,62.60
2018-05-07T17:44:52.082Z,63.40
2018-05-07T17:48:09.868Z,64.10
2018-05-07T17:51:15.253Z,64.80
2018-05-07T17:54:21.345Z,64.60
2018-05-07T17:57:26.349Z,65.40
2018-05-07T18:00:32.939Z,65.50
2018-05-07T18:03:39.525Z,66.10
2018-05-07T18:06:45.636Z,66.30
2018-05-07T18:09:51.697Z,66.70
2018-05-07T18:12:57.866Z,67.60
2018-05-07T18:16:03.006Z,67.50
2018-05-07T18:19:09.310Z,68.20
2018-05-07T18:22:14.494Z,68.10
2018-05-07T18:25:21.097Z,69.10
2018-05-07T18:28:28.093Z,69.00
2018-05-07T18:31:33.711Z,69.00
2018-05-07T18:34:42.683Z,69.80
2018-05-07T18:37:49.507Z,70.30
2018-05-07T18:40:55.654Z,72.90
2018-05-07T18:44:01.647Z,72.90
2018-05-07T18:47:08.061Z,73.50
2018-05-07T18:50:14.008Z,75.00
2018-05-07T18:53:23.072Z,76.20
2018-05-07T18:56:29.260Z,77.20
2018-05-07T18:59:36.252Z,79.00
2018-05-07T19:02:42.343Z,79.90
2018-05-07T19:05:48.342Z,82.20
2018-05-07T19:08:54.401Z,83.50
2018-05-07T19:12:01.203Z,88.40
2018-05-07T19:15:07.365Z,88.50
2018-05-07T19:18:13.508Z,93.10
2018-05-07T19:21:19.388Z,92.90
2018-05-07T19:24:25.716Z,96.90
2018-05-07T19:27:32.103Z,99.00
2018-05-07T19:30:37.232Z,99.00
2018-05-07T19:33:43.230Z,99.90
2018-05-07T19:36:48.462Z,99.90
2018-05-07T19:39:55.823Z,99.90
2018-05-07T19:43:02.638Z,99.90
2018-05-07T19:46:08.569Z,99.90
2018-05-07T19:49:13.537Z,99.90
2018-05-07T19:52:19.446Z,99.90
2018-05-07T19:55:25.795Z,99.90
2018-05-07T19:58:31.706Z,99.90
2018-05-07T20:01:38.343Z,99.90
2018-05-07T20:04:44.151Z,99.90
2018-05-07T20:07:50.370Z,99.90
2018-05-07T20:10:56.409Z,99.90
2018-05-07T20:14:02.509Z,99.90
2018-05-07T20:17:09.634Z,99.90
2018-05-07T20:20:16.128Z,99.90
2018-05-07T20:23:22.133Z,99.90
2018-05-07T20:26:28.631Z,99.90
2018-05-07T20:29:34.822Z,99.90
2018-05-07T20:32:41.836Z,99.90
2018-05-07T20:35:48.032Z,99.90
2018-05-07T20:38:55.062Z,99.90
2018-05-07T20:42:01.306Z,99.90
2018-05-07T20:45:08.481Z,99.90
2018-05-07T20:48:14.769Z,99.90
2018-05-07T20:51:21.846Z,99.90
2018-05-07T20:54:27.852Z,99.90
2018-05-07T20:57:33.975Z,99.90
2018-05-07T21:00:40.726Z,99.90
2018-05-07T21:03:47.096Z,99.90
2018-05-07T21:06:52.856Z,99.90
2018-05-07T21:09:58.825Z,99.90
2018-05-07T21:13:04.947Z,99.90
2018-05-07T21:16:12.165Z,99.90
2018-05-07T21:19:18.660Z,99.90
2018-05-07T21:22:24.814Z,99.90
2018-05-07T21:25:32.914Z,99.90
2018-05-07T21:28:39.916Z,99.90
2018-05-07T21:31:45.806Z,99.90
2018-05-07T21:34:52.080Z,99.90
2018-05-07T21:37:58.879Z,99.90
2018-05-07T21:41:05.035Z,99.90
2018-05-07T21:44:11.848Z,99.90
2018-05-07T21:47:18.781Z,99.90
2018-05-07T21:50:25.781Z,99.90
2018-05-07T21:53:32.925Z,99.90
2018-05-07T21:56:39.338Z,99.90
2018-05-07T21:59:44.893Z,99.90
2018-05-07T22:02:50.955Z,99.90
2018-05-07T22:05:56.931Z,99.90
2018-05-07T22:09:03.044Z,99.90
2018-05-07T22:12:08.956Z,99.90
2018-05-07T22:15:15.085Z,99.90
2018-05-07T22:18:21.572Z,99.90
2018-05-07T22:21:27.507Z,99.90
2018-05-07T22:24:33.841Z,99.90
2018-05-07T22:27:39.867Z,99.90
2018-05-07T22:30:45.833Z,99.90
2018-05-07T22:33:52.001Z,99.90
2018-05-07T22:36:57.819Z,99.90
2018-05-07T22:40:04.003Z,99.90
2018-05-07T22:43:09.901Z,99.90
2018-05-07T22:46:15.886Z,99.90
2018-05-07T22:49:22.292Z,99.90
2018-05-07T22:52:28.226Z,99.90
2018-05-07T22:55:40.245Z,99.90
2018-05-07T22:58:46.316Z,99.90
2018-05-07T23:01:51.530Z,99.90
2018-05-07T23:04:56.690Z,99.90
2018-05-07T23:08:02.141Z,99.90
2018-05-07T23:11:08.349Z,99.90
2018-05-07T23:14:13.565Z,99.90
2018-05-07T23:17:19.920Z,99.90
2018-05-07T23:20:25.951Z,99.90
2018-05-07T23:23:31.607Z,99.90
2018-05-07T23:26:37.639Z,99.90
2018-05-07T23:29:43.807Z,99.90
2018-05-07T23:32:56.073Z,99.90
2018-05-07T23:36:02.114Z,99.90
2018-05-07T23:39:08.206Z,99.90
2018-05-07T23:42:15.184Z,99.90
2018-05-07T23:45:21.025Z,99.90
2018-05-07T23:48:27.952Z,99.90
2018-05-07T23:51:34.085Z,99.90
2018-05-07T23:54:39.132Z,99.90
2018-05-07T23:57:46.076Z,99.90
